Time;durP1;ratioP1;P1;durP2;ratioP2;P2;SDS_P1;SDS_P2;PMS_P1;PMS_P2;Temp;Humidity;BMP_temperature;BMP_pressure;BME280_temperature;BME280_humidity;BME280_pressure;Samples;Min_cycle;Max_cycle;Signal;HPM_P1;HPM_P2
2021/07/17 00:00:37;;;;;;;13.35;9.80;;;22.20;99.90;;;;;;5045680;28;20033;-72
2021/07/17 00:03:04;;;;;;;14.63;9.60;;;22.20;99.90;;;;;;5048818;28;20037;-72
2021/07/17 00:05:31;;;;;;;17.10;9.55;;;22.20;99.90;;;;;;5044546;28;20025;-72
2021/07/17 00:07:57;;;;;;;21.50;9.57;;;22.20;99.90;;;;;;5047855;28;20115;-71
2021/07/17 00:10:31;;;;;;;15.52;9.25;;;22.10;99.90;;;;;;5045999;28;20048;-72
2021/07/17 00:12:56;;;;;;;16.40;9.32;;;22.10;99.90;;;;;;5036143;28;20028;-72
2021/07/17 00:15:24;;;;;;;14.52;9.85;;;22.10;99.90;;;;;;5045907;28;20032;-72
2021/07/17 00:17:50;;;;;;;16.65;9.20;;;22.10;99.90;;;;;;5045651;28;20037;-72
2021/07/17 00:20:16;;;;;;;13.68;9.18;;;22.10;99.90;;;;;;5044235;28;20041;-72
2021/07/17 00:22:41;;;;;;;11.70;9.20;;;22.10;99.90;;;;;;5044770;28;20041;-72
2021/07/17 00:25:10;;;;;;;16.35;9.57;;;22.10;99.90;;;;;;5047739;28;20023;-72
2021/07/17 00:27:35;;;;;;;14.23;9.65;;;22.10;99.90;;;;;;5048244;28;20029;-72
2021/07/17 00:30:01;;;;;;;13.85;9.35;;;22.10;99.90;;;;;;5046713;28;20108;-72
2021/07/17 00:32:28;;;;;;;16.50;9.52;;;22.00;99.90;;;;;;5047279;28;20044;-72
2021/07/17 00:34:53;;;;;;;12.35;8.60;;;22.00;99.90;;;;;;5047746;28;20074;-71
2021/07/17 00:37:19;;;;;;;16.38;9.27;;;22.00;99.90;;;;;;5047453;28;20024;-72
2021/07/17 00:39:44;;;;;;;13.13;9.25;;;22.10;99.90;;;;;;5046965;28;20048;-71
2021/07/17 00:42:10;;;;;;;18.60;9.20;;;22.00;99.90;;;;;;5043305;28;20024;-73
2021/07/17 00:44:35;;;;;;;18.63;8.60;;;22.00;99.90;;;;;;5045928;28;20029;-72
2021/07/17 00:47:01;;;;;;;13.68;9.18;;;22.00;99.90;;;;;;5040509;28;20513;-72
2021/07/17 00:49:29;;;;;;;14.82;9.30;;;22.00;99.90;;;;;;5048985;28;20025;-72
2021/07/17 00:51:55;;;;;;;14.60;10.07;;;22.00;99.90;;;;;;5046821;28;20029;-72
2021/07/17 00:54:22;;;;;;;16.80;8.32;;;22.00;99.90;;;;;;5047139;28;20621;-72
2021/07/17 00:56:48;;;;;;;12.63;8.15;;;22.00;99.90;;;;;;5046089;28;20029;-71
2021/07/17 00:59:21;;;;;;;14.93;8.93;;;22.00;99.90;;;;;;5036244;28;20029;-72
2021/07/17 01:01:50;;;;;;;18.88;9.43;;;22.00;99.90;;;;;;5043148;28;20029;-72
2021/07/17 01:04:16;;;;;;;13.93;9.60;;;22.00;99.90;;;;;;5048457;28;20025;-72
2021/07/17 01:06:42;;;;;;;15.27;8.02;;;22.00;99.90;;;;;;5046411;28;20029;-72
2021/07/17 01:09:08;;;;;;;12.00;8.45;;;22.00;99.90;;;;;;5039388;28;20028;-72
2021/07/17 01:11:33;;;;;;;11.82;8.50;;;21.90;99.90;;;;;;5043969;28;20028;-73
2021/07/17 01:13:58;;;;;;;17.67;8.75;;;21.90;99.90;;;;;;5045707;28;20029;-71
2021/07/17 01:16:24;;;;;;;10.90;8.30;;;21.90;99.90;;;;;;5046473;28;20527;-72
2021/07/17 01:18:50;;;;;;;11.35;8.18;;;21.90;99.90;;;;;;5045672;28;20053;-72
2021/07/17 01:21:17;;;;;;;13.73;8.30;;;21.90;99.90;;;;;;5043791;28;20083;-72
2021/07/17 01:23:44;;;;;;;11.00;7.88;;;21.90;99.90;;;;;;5043252;28;20025;-73
2021/07/17 01:26:11;;;;;;;12.18;7.85;;;21.90;99.90;;;;;;5046335;28;20158;-73
2021/07/17 01:28:38;;;;;;;12.55;7.32;;;21.90;99.90;;;;;;5039326;28;20047;-72
2021/07/17 01:31:04;;;;;;;11.32;7.40;;;21.90;99.90;;;;;;5039118;28;20021;-72
2021/07/17 01:33:29;;;;;;;14.50;8.73;;;21.90;99.90;;;;;;5041718;28;20079;-72
2021/07/17 01:35:55;;;;;;;15.93;8.40;;;21.90;99.90;;;;;;5040042;28;20033;-72
2021/07/17 01:38:20;;;;;;;10.98;7.88;;;21.90;99.90;;;;;;5042538;28;20505;-72
2021/07/17 01:40:47;;;;;;;10.77;7.35;;;21.90;99.90;;;;;;5044992;28;20032;-72
2021/07/17 01:43:13;;;;;;;12.13;8.05;;;21.90;99.90;;;;;;5046023;28;20075;-72
2021/07/17 01:45:39;;;;;;;13.52;7.85;;;21.90;99.90;;;;;;5046936;28;20147;-72
2021/07/17 01:48:10;;;;;;;11.15;7.82;;;21.90;99.90;;;;;;5044809;28;20493;-72
2021/07/17 01:50:37;;;;;;;10.93;7.93;;;21.80;99.90;;;;;;5042115;28;20041;-72
2021/07/17 01:53:06;;;;;;;13.75;7.63;;;21.80;99.90;;;;;;5040588;28;20094;-73
2021/07/17 01:55:32;;;;;;;11.27;7.38;;;21.80;99.90;;;;;;5045200;28;20078;-73
2021/07/17 01:57:59;;;;;;;13.52;7.60;;;21.80;99.90;;;;;;5056277;28;20033;-73
2021/07/17 02:00:25;;;;;;;18.75;9.05;;;21.80;99.90;;;;;;5050406;28;20553;-73
2021/07/17 02:02:51;;;;;;;11.50;7.47;;;21.80;99.90;;;;;;5053446;28;20124;-73
2021/07/17 02:05:19;;;;;;;13.75;8.43;;;21.80;99.90;;;;;;5048700;28;20058;-73
2021/07/17 02:07:45;;;;;;;15.20;8.10;;;21.70;99.90;;;;;;5046634;28;20021;-73
2021/07/17 02:10:21;;;;;;;18.10;8.80;;;21.70;99.90;;;;;;5048523;28;20033;-73
2021/07/17 02:13:02;;;;;;;10.50;7.50;;;21.70;99.90;;;;;;5045363;28;20056;-73
2021/07/17 02:15:29;;;;;;;13.43;7.88;;;21.60;99.90;;;;;;5042825;28;20045;-73
2021/07/17 02:17:55;;;;;;;12.82;8.60;;;21.70;99.90;;;;;;5050509;28;20575;-73
2021/07/17 02:20:21;;;;;;;12.77;7.63;;;21.60;99.90;;;;;;5048661;28;20025;-73
2021/07/17 02:22:46;;;;;;;12.95;8.32;;;21.60;99.90;;;;;;5049991;28;20025;-73
2021/07/17 02:25:12;;;;;;;12.90;7.80;;;21.60;99.90;;;;;;5050071;28;20558;-73
2021/07/17 02:27:37;;;;;;;10.23;7.03;;;21.60;99.90;;;;;;5051367;28;20029;-73
2021/07/17 02:30:04;;;;;;;12.75;6.95;;;21.50;99.90;;;;;;5050330;28;20087;-73
2021/07/17 02:32:30;;;;;;;9.93;6.78;;;21.50;99.90;;;;;;5046784;28;20025;-73
2021/07/17 02:34:56;;;;;;;11.32;6.78;;;21.50;99.90;;;;;;5043348;28;20037;-73
2021/07/17 02:37:21;;;;;;;10.95;6.70;;;21.50;99.90;;;;;;5046049;28;20024;-73
2021/07/17 02:39:47;;;;;;;13.05;6.82;;;21.50;99.90;;;;;;5048944;28;20029;-73
2021/07/17 02:42:12;;;;;;;13.45;6.85;;;21.40;99.90;;;;;;5048519;28;20021;-73
2021/07/17 02:44:38;;;;;;;8.43;6.38;;;21.50;99.90;;;;;;5051110;28;20044;-73
2021/07/17 02:47:03;;;;;;;8.80;6.45;;;21.50;99.90;;;;;;5045619;28;20051;-73
2021/07/17 02:49:30;;;;;;;10.10;6.28;;;21.50;99.90;;;;;;5049852;28;20102;-73
2021/07/17 02:51:55;;;;;;;11.05;6.53;;;21.50;99.90;;;;;;5049924;28;20511;-73
2021/07/17 02:54:21;;;;;;;10.45;6.45;;;21.50;99.90;;;;;;5049364;28;20035;-72
2021/07/17 02:56:47;;;;;;;9.20;6.00;;;21.50;99.90;;;;;;5049405;28;20415;-72
2021/07/17 02:59:12;;;;;;;9.40;6.32;;;21.40;99.90;;;;;;5050223;28;20052;-73
2021/07/17 03:01:38;;;;;;;12.18;6.28;;;21.40;99.90;;;;;;5045704;28;20075;-73
2021/07/17 03:04:03;;;;;;;14.45;6.22;;;21.40;99.90;;;;;;5050547;28;20033;-73
2021/07/17 03:06:29;;;;;;;12.73;6.25;;;21.50;99.90;;;;;;5048271;28;20025;-72
2021/07/17 03:08:55;;;;;;;7.53;6.00;;;21.40;99.90;;;;;;5050676;28;20507;-73
2021/07/17 03:11:20;;;;;;;7.95;5.78;;;21.40;99.90;;;;;;5048406;28;20718;-72
2021/07/17 03:13:47;;;;;;;7.63;6.32;;;21.40;99.90;;;;;;5048882;28;20029;-73
2021/07/17 03:16:12;;;;;;;13.20;5.93;;;21.40;99.90;;;;;;5047124;28;20140;-73
2021/07/17 03:18:37;;;;;;;9.90;5.78;;;21.40;99.90;;;;;;5048423;28;20539;-73
2021/07/17 03:21:03;;;;;;;7.70;5.57;;;21.40;99.90;;;;;;5049304;28;20067;-73
2021/07/17 03:23:28;;;;;;;12.82;6.18;;;21.40;99.90;;;;;;5040764;28;20456;-73
2021/07/17 03:25:54;;;;;;;11.30;6.82;;;21.40;99.90;;;;;;5041370;28;20029;-73
2021/07/17 03:28:19;;;;;;;7.47;5.63;;;21.40;99.90;;;;;;5046569;28;20025;-73
2021/07/17 03:30:45;;;;;;;12.82;5.55;;;21.40;99.90;;;;;;5045410;28;21811;-73
2021/07/17 03:33:10;;;;;;;11.93;5.75;;;21.40;99.90;;;;;;5042422;28;20044;-73
2021/07/17 03:35:36;;;;;;;12.32;6.45;;;21.50;99.90;;;;;;5042054;28;20445;-72
2021/07/17 03:38:01;;;;;;;8.27;5.53;;;21.50;99.90;;;;;;5047847;28;20021;-72
2021/07/17 03:40:27;;;;;;;9.50;6.05;;;21.50;99.90;;;;;;5050003;28;20079;-72
2021/07/17 03:42:52;;;;;;;9.73;6.03;;;21.40;99.90;;;;;;5046222;28;20056;-72
2021/07/17 03:45:18;;;;;;;11.43;5.53;;;21.50;99.90;;;;;;5050219;28;20078;-72
2021/07/17 03:47:43;;;;;;;11.35;5.57;;;21.50;99.90;;;;;;5038609;28;20036;-73
2021/07/17 03:50:09;;;;;;;7.95;5.75;;;21.50;99.90;;;;;;5049835;28;20108;-73
2021/07/17 03:52:35;;;;;;;8.85;5.75;;;21.60;99.90;;;;;;5040206;28;20112;-73
2021/07/17 03:55:00;;;;;;;9.52;6.03;;;21.60;99.90;;;;;;5047545;28;20024;-72
2021/07/17 03:57:26;;;;;;;10.35;5.32;;;21.60;99.90;;;;;;5043825;28;20036;-73
2021/07/17 03:59:51;;;;;;;9.98;5.78;;;21.60;99.90;;;;;;5048474;28;20484;-73
2021/07/17 04:02:17;;;;;;;12.02;6.43;;;21.60;99.90;;;;;;5044745;28;20017;-72
2021/07/17 04:04:43;;;;;;;9.98;5.68;;;21.50;99.90;;;;;;5047229;28;20527;-73
2021/07/17 04:07:09;;;;;;;12.68;5.68;;;21.50;99.90;;;;;;5047377;28;20560;-73
2021/07/17 04:09:35;;;;;;;12.85;6.35;;;21.50;99.90;;;;;;5046657;28;20025;-73
2021/07/17 04:12:00;;;;;;;13.43;5.85;;;21.50;99.90;;;;;;5044629;28;20589;-73
2021/07/17 04:14:26;;;;;;;8.07;5.35;;;21.50;99.90;;;;;;5045421;28;20025;-72
2021/07/17 04:16:51;;;;;;;11.38;6.13;;;21.50;99.90;;;;;;5045564;28;20045;-73
2021/07/17 04:19:17;;;;;;;8.60;5.75;;;21.50;99.90;;;;;;5046405;28;20033;-72
2021/07/17 04:21:42;;;;;;;10.20;5.93;;;21.50;99.90;;;;;;5047705;28;20026;-73
2021/07/17 04:24:08;;;;;;;8.55;6.45;;;21.50;99.90;;;;;;5046695;28;20391;-73
2021/07/17 04:26:33;;;;;;;12.68;6.65;;;21.60;99.90;;;;;;5041689;28;20025;-73
2021/07/17 04:29:07;;;;;;;11.10;5.95;;;21.60;99.90;;;;;;5047910;28;20032;-73
2021/07/17 04:31:32;;;;;;;13.82;6.10;;;21.60;99.90;;;;;;5036841;28;20035;-73
2021/07/17 04:33:58;;;;;;;9.80;6.18;;;21.60;99.90;;;;;;5043501;28;20048;-73
2021/07/17 04:36:23;;;;;;;12.45;5.80;;;21.60;99.90;;;;;;5044715;28;20499;-73
2021/07/17 04:38:49;;;;;;;9.00;5.75;;;21.60;99.90;;;;;;5047689;28;20055;-73
2021/07/17 04:41:14;;;;;;;8.90;6.03;;;21.70;99.90;;;;;;5047499;28;20024;-73
2021/07/17 04:43:40;;;;;;;7.70;6.05;;;21.70;99.90;;;;;;5048043;28;20670;-73
2021/07/17 04:46:05;;;;;;;12.00;6.30;;;21.70;99.90;;;;;;5044887;28;20021;-73
2021/07/17 04:48:31;;;;;;;11.05;6.70;;;21.70;99.90;;;;;;5046319;28;20365;-73
2021/07/17 04:50:56;;;;;;;9.73;6.72;;;21.60;99.90;;;;;;5038448;28;20055;-74
2021/07/17 04:53:22;;;;;;;11.43;6.68;;;21.60;99.90;;;;;;5046231;28;20048;-75
2021/07/17 04:55:47;;;;;;;12.40;7.20;;;21.60;99.90;;;;;;5042681;28;20511;-74
2021/07/17 04:58:13;;;;;;;13.90;7.35;;;21.60;99.90;;;;;;5038968;28;20029;-74
2021/07/17 05:00:38;;;;;;;10.10;7.22;;;21.70;99.90;;;;;;5048112;28;20025;-74
2021/07/17 05:03:04;;;;;;;13.52;7.20;;;21.60;99.90;;;;;;5047096;28;20021;-74
2021/07/17 05:05:29;;;;;;;13.52;7.80;;;21.70;99.90;;;;;;5048549;28;20025;-74
2021/07/17 05:07:55;;;;;;;13.32;7.68;;;21.70;99.90;;;;;;5048444;28;20179;-74
2021/07/17 05:10:24;;;;;;;10.10;7.47;;;21.70;99.90;;;;;;5046942;28;20037;-73
2021/07/17 05:12:50;;;;;;;9.20;7.13;;;21.70;99.90;;;;;;5045880;28;20120;-73
2021/07/17 05:15:17;;;;;;;12.38;7.05;;;21.70;99.90;;;;;;5040983;28;20056;-72
2021/07/17 05:17:43;;;;;;;11.23;7.00;;;21.80;99.90;;;;;;5042810;28;20033;-72
2021/07/17 05:20:09;;;;;;;11.45;7.50;;;21.80;99.90;;;;;;5044744;28;20116;-72
2021/07/17 05:22:41;;;;;;;11.05;7.82;;;21.90;99.90;;;;;;5043719;28;20148;-72
2021/07/17 05:25:08;;;;;;;14.52;7.75;;;22.00;99.90;;;;;;5044949;28;20021;-73
2021/07/17 05:27:34;;;;;;;11.05;7.90;;;22.00;99.90;;;;;;5046756;28;20025;-74
2021/07/17 05:30:00;;;;;;;13.35;7.93;;;22.10;99.90;;;;;;5051763;28;20029;-74
2021/07/17 05:32:25;;;;;;;19.25;8.00;;;22.00;99.90;;;;;;5046379;28;20060;-75
2021/07/17 05:34:51;;;;;;;12.00;7.45;;;22.10;99.90;;;;;;5051239;28;20052;-74
2021/07/17 05:37:16;;;;;;;11.95;7.68;;;22.10;99.90;;;;;;5041392;28;20063;-73
2021/07/17 05:39:42;;;;;;;12.98;8.15;;;22.20;99.90;;;;;;5052325;28;20391;-74
2021/07/17 05:42:07;;;;;;;16.63;8.40;;;22.30;99.90;;;;;;5049439;28;20138;-74
2021/07/17 05:44:33;;;;;;;13.85;8.48;;;22.40;99.90;;;;;;5050996;28;20031;-74
2021/07/17 05:46:58;;;;;;;12.63;8.05;;;22.40;99.90;;;;;;5050163;28;20102;-74
2021/07/17 05:49:25;;;;;;;10.55;7.85;;;22.40;99.90;;;;;;5050923;28;20033;-73
2021/07/17 05:51:50;;;;;;;11.98;7.63;;;22.40;99.90;;;;;;5051608;28;20021;-75
2021/07/17 05:54:16;;;;;;;15.07;8.35;;;22.40;99.90;;;;;;5050924;28;20141;-72
2021/07/17 05:56:42;;;;;;;11.80;7.93;;;22.40;99.90;;;;;;5051936;28;20028;-73
2021/07/17 05:59:07;;;;;;;17.92;9.40;;;22.40;99.90;;;;;;5051057;28;20036;-73
2021/07/17 06:01:33;;;;;;;13.95;7.97;;;22.40;99.90;;;;;;5052388;28;20643;-73
2021/07/17 06:04:00;;;;;;;12.95;9.48;;;22.40;99.90;;;;;;5050584;28;20032;-74
2021/07/17 06:06:25;;;;;;;12.00;8.90;;;22.40;99.90;;;;;;5045496;28;20068;-74
2021/07/17 06:08:50;;;;;;;12.15;9.20;;;22.30;99.90;;;;;;5048427;28;20434;-75
2021/07/17 06:11:16;;;;;;;14.48;9.43;;;22.30;99.90;;;;;;5045723;28;20083;-74
2021/07/17 06:13:41;;;;;;;15.55;10.45;;;22.30;99.90;;;;;;5050907;28;20036;-75
2021/07/17 06:16:08;;;;;;;17.35;9.85;;;22.30;99.90;;;;;;5046653;28;20080;-75
2021/07/17 06:18:33;;;;;;;17.10;10.73;;;22.30;99.90;;;;;;5051252;28;20048;-75
2021/07/17 06:20:59;;;;;;;16.38;10.38;;;22.30;99.90;;;;;;5049973;28;20507;-75
2021/07/17 06:23:24;;;;;;;15.50;10.25;;;22.20;99.90;;;;;;5046778;28;20046;-75
2021/07/17 06:25:50;;;;;;;16.83;11.20;;;22.20;99.90;;;;;;5047067;28;20078;-76
2021/07/17 06:28:15;;;;;;;15.65;10.20;;;22.20;99.90;;;;;;5046597;28;20061;-75
2021/07/17 06:30:41;;;;;;;15.85;11.07;;;22.30;99.90;;;;;;5051957;28;20024;-76
2021/07/17 06:33:06;;;;;;;15.73;9.85;;;22.30;99.90;;;;;;5049004;28;20028;-76
2021/07/17 06:35:32;;;;;;;19.52;10.65;;;22.40;99.90;;;;;;5049808;28;20021;-75
2021/07/17 06:37:57;;;;;;;18.35;10.82;;;22.40;99.90;;;;;;5048243;28;20361;-76
2021/07/17 06:40:23;;;;;;;16.23;11.55;;;22.50;99.90;;;;;;5049551;28;20040;-75
2021/07/17 06:42:50;;;;;;;18.00;10.85;;;22.50;99.90;;;;;;5050867;28;20033;-76
2021/07/17 06:45:17;;;;;;;19.25;11.35;;;22.50;99.90;;;;;;5041219;28;20066;-76
2021/07/17 06:47:43;;;;;;;17.60;11.23;;;22.50;99.90;;;;;;5049414;28;20025;-76
2021/07/17 06:50:09;;;;;;;15.05;11.20;;;22.50;99.90;;;;;;5040434;28;20028;-81
2021/07/17 06:52:41;;;;;;;17.38;11.40;;;22.40;99.90;;;;;;5040956;28;20039;-75
2021/07/17 06:55:09;;;;;;;17.35;11.43;;;22.40;99.90;;;;;;5041430;28;20028;-75
2021/07/17 06:57:35;;;;;;;14.85;10.88;;;22.40;99.90;;;;;;5046559;28;20024;-74
2021/07/17 07:00:03;;;;;;;18.20;12.02;;;22.40;99.90;;;;;;5049668;28;20035;-74
2021/07/17 07:02:29;;;;;;;15.50;11.38;;;22.40;99.90;;;;;;5052037;28;20029;-73
2021/07/17 07:04:54;;;;;;;18.00;11.82;;;22.40;99.90;;;;;;5048306;28;20044;-74
2021/07/17 07:07:20;;;;;;;19.10;12.10;;;22.40;99.90;;;;;;5045264;28;20136;-73
2021/07/17 07:09:45;;;;;;;16.55;11.82;;;22.40;99.90;;;;;;5036631;28;20037;-74
2021/07/17 07:12:11;;;;;;;18.05;12.23;;;22.40;99.90;;;;;;5049034;28;20024;-74
2021/07/17 07:14:36;;;;;;;17.08;10.63;;;22.50;99.90;;;;;;5049329;28;20268;-74
2021/07/17 07:17:02;;;;;;;16.30;11.38;;;22.60;99.90;;;;;;5044558;28;20516;-73
2021/07/17 07:19:27;;;;;;;17.10;11.48;;;22.70;99.90;;;;;;5038677;28;20101;-73
2021/07/17 07:21:53;;;;;;;17.45;11.55;;;22.80;99.90;;;;;;5048148;28;20021;-74
2021/07/17 07:24:19;;;;;;;18.75;12.55;;;22.90;99.90;;;;;;5039797;28;20511;-73
2021/07/17 07:26:44;;;;;;;18.55;11.57;;;23.00;99.90;;;;;;5046443;28;20055;-73
2021/07/17 07:29:10;;;;;;;15.18;11.02;;;23.10;99.90;;;;;;5043315;28;20384;-73
2021/07/17 07:31:35;;;;;;;19.88;11.95;;;23.20;99.90;;;;;;5050334;28;20035;-73
2021/07/17 07:34:01;;;;;;;15.70;11.80;;;23.30;99.90;;;;;;5041176;28;20032;-74
2021/07/17 07:36:26;;;;;;;14.43;11.20;;;23.40;99.90;;;;;;5046552;28;20021;-73
2021/07/17 07:38:52;;;;;;;17.40;12.38;;;23.50;99.90;;;;;;5039171;28;20083;-75
2021/07/17 07:41:18;;;;;;;17.92;12.40;;;23.60;99.90;;;;;;5040054;28;20025;-73
2021/07/17 07:43:45;;;;;;;20.15;11.55;;;23.60;99.90;;;;;;5043478;28;20353;-85
2021/07/17 07:46:11;;;;;;;17.98;12.00;;;23.60;99.90;;;;;;5032151;28;20476;-73
2021/07/17 07:48:37;;;;;;;17.13;12.07;;;23.60;99.90;;;;;;5038001;28;20030;-72
2021/07/17 07:51:02;;;;;;;16.33;10.98;;;23.60;99.90;;;;;;5042846;28;20021;-72
2021/07/17 07:53:28;;;;;;;13.23;9.85;;;23.70;99.90;;;;;;5050209;28;20410;-72
2021/07/17 07:55:53;;;;;;;9.65;7.80;;;23.60;99.90;;;;;;5034216;28;20088;-72
2021/07/17 07:58:19;;;;;;;15.50;10.82;;;23.60;99.90;;;;;;5032263;28;20033;-71
2021/07/17 08:00:44;;;;;;;13.27;8.88;;;23.60;99.90;;;;;;5044989;28;20025;-77
2021/07/17 08:03:10;;;;;;;15.50;10.27;;;23.60;99.90;;;;;;5045638;28;20484;-73
2021/07/17 08:05:35;;;;;;;14.55;10.30;;;23.60;99.90;;;;;;5047512;28;20132;-72
2021/07/17 08:08:01;;;;;;;16.35;11.00;;;23.70;99.90;;;;;;5050129;28;20491;-72
2021/07/17 08:10:26;;;;;;;14.98;10.95;;;23.80;99.90;;;;;;5043046;28;20028;-73
2021/07/17 08:12:52;;;;;;;15.23;10.73;;;24.00;99.90;;;;;;5043357;28;20037;-74
2021/07/17 08:15:18;;;;;;;14.57;10.20;;;24.10;99.90;;;;;;5048012;28;20049;-73
2021/07/17 08:17:44;;;;;;;14.48;10.13;;;24.10;99.90;;;;;;5042193;28;20356;-73
2021/07/17 08:20:10;;;;;;;15.35;9.48;;;24.10;99.90;;;;;;5048594;28;20029;-74
2021/07/17 08:22:39;;;;;;;14.18;9.98;;;24.10;99.90;;;;;;5042426;28;20041;-74
2021/07/17 08:25:07;;;;;;;14.07;9.00;;;24.10;99.90;;;;;;5047032;28;20495;-74
2021/07/17 08:27:32;;;;;;;14.68;9.15;;;24.10;99.90;;;;;;5036325;28;20392;-75
2021/07/17 08:29:58;;;;;;;13.55;9.18;;;24.10;99.90;;;;;;5046143;28;20021;-73
2021/07/17 08:32:24;;;;;;;13.38;9.68;;;24.10;99.90;;;;;;5034770;28;20036;-73
2021/07/17 08:34:52;;;;;;;17.02;9.75;;;24.10;99.90;;;;;;5045951;28;20502;-73
2021/07/17 08:37:18;;;;;;;11.63;8.45;;;24.10;99.90;;;;;;5041763;28;20035;-73
2021/07/17 08:39:43;;;;;;;12.52;8.43;;;24.20;99.90;;;;;;5035409;28;20025;-73
2021/07/17 08:42:09;;;;;;;15.88;10.32;;;24.30;99.90;;;;;;5048492;28;20048;-73
2021/07/17 08:44:37;;;;;;;17.98;10.40;;;24.40;99.90;;;;;;5048906;28;20120;-74
2021/07/17 08:47:04;;;;;;;16.50;10.45;;;24.40;99.90;;;;;;5047382;28;20035;-75
2021/07/17 08:49:30;;;;;;;11.80;9.80;;;24.30;99.90;;;;;;5046586;28;20040;-75
2021/07/17 08:51:56;;;;;;;14.88;10.13;;;24.30;99.90;;;;;;5048340;28;20123;-76
2021/07/17 08:54:22;;;;;;;14.43;9.77;;;24.30;99.90;;;;;;5046716;28;20448;-73
2021/07/17 08:56:48;;;;;;;12.60;8.45;;;24.40;99.90;;;;;;5038939;28;20025;-74
2021/07/17 08:59:14;;;;;;;15.95;8.75;;;24.40;99.90;;;;;;5037726;28;20538;-74
2021/07/17 09:01:39;;;;;;;12.18;8.38;;;24.50;99.90;;;;;;5044730;28;20032;-73
2021/07/17 09:04:07;;;;;;;12.75;8.85;;;24.50;99.90;;;;;;5046415;28;20063;-72
2021/07/17 09:06:33;;;;;;;12.48;7.90;;;24.60;99.90;;;;;;5045104;28;20104;-73
2021/07/17 09:08:58;;;;;;;14.40;10.10;;;24.50;99.90;;;;;;5044877;28;20035;-72
2021/07/17 09:11:35;;;;;;;15.02;9.32;;;24.50;99.90;;;;;;5047167;28;20407;-72
2021/07/17 09:14:01;;;;;;;12.13;9.18;;;24.50;99.90;;;;;;5045518;28;20037;-72
2021/07/17 09:16:30;;;;;;;12.00;8.15;;;24.50;99.90;;;;;;5044283;28;20053;-72
2021/07/17 09:18:56;;;;;;;13.02;9.40;;;24.50;99.90;;;;;;5044967;28;20036;-72
2021/07/17 09:21:32;;;;;;;13.45;9.32;;;24.60;99.90;;;;;;5046384;28;20044;-73
2021/07/17 09:24:05;;;;;;;12.60;8.98;;;24.60;99.90;;;;;;5045206;28;20114;-73
2021/07/17 09:26:34;;;;;;;13.23;9.13;;;24.70;99.90;;;;;;5046916;28;20017;-74
2021/07/17 09:29:02;;;;;;;15.23;8.38;;;24.70;99.90;;;;;;5045219;28;20357;-72
2021/07/17 09:31:30;;;;;;;12.45;9.73;;;24.60;99.90;;;;;;5042342;28;20056;-73
2021/07/17 09:34:10;;;;;;;12.50;9.05;;;24.60;99.90;;;;;;5046047;28;20856;-75
2021/07/17 09:36:50;;;;;;;14.65;10.10;;;24.60;99.90;;;;;;5046569;28;20025;-74
2021/07/17 09:39:16;;;;;;;11.43;9.02;;;24.60;99.90;;;;;;5046478;28;20029;-71
2021/07/17 09:41:58;;;;;;;15.48;9.15;;;24.70;99.90;;;;;;5045874;28;20036;-76
2021/07/17 09:44:25;;;;;;;12.02;9.32;;;24.60;99.90;;;;;;5046575;28;20025;-72
2021/07/17 09:46:50;;;;;;;13.10;9.63;;;24.60;99.90;;;;;;5045817;28;20388;-73
2021/07/17 09:49:20;;;;;;;12.30;9.38;;;24.60;99.90;;;;;;5048524;28;20025;-71
2021/07/17 09:51:47;;;;;;;14.52;9.88;;;24.60;99.90;;;;;;5047474;28;20138;-73
2021/07/17 09:54:12;;;;;;;14.95;10.18;;;24.60;99.90;;;;;;5048387;28;20484;-73
2021/07/17 09:56:40;;;;;;;12.35;8.60;;;24.70;99.90;;;;;;5052510;28;20033;-73
2021/07/17 09:59:11;;;;;;;14.90;10.63;;;24.70;99.90;;;;;;5048053;28;20040;-73
2021/07/17 10:01:38;;;;;;;;;;;24.90;99.90;;;;;;5047743;28;20037;-73
2021/07/17 10:04:05;;;;;;;14.30;9.25;;;25.00;99.90;;;;;;5048307;28;19904;-74
2021/07/17 10:06:32;;;;;;;13.45;10.20;;;25.20;99.90;;;;;;5047718;28;20033;-73
2021/07/17 10:09:02;;;;;;;12.50;8.85;;;25.30;99.90;;;;;;5047760;28;20079;-73
2021/07/17 10:11:29;;;;;;;13.45;10.40;;;25.40;99.90;;;;;;5047574;28;20119;-72
2021/07/17 10:13:55;;;;;;;14.50;9.88;;;25.40;99.90;;;;;;5049529;28;20068;-72
2021/07/17 10:16:24;;;;;;;14.93;8.55;;;25.40;99.90;;;;;;5050320;28;20072;-72
2021/07/17 10:18:51;;;;;;;15.35;9.75;;;25.50;99.90;;;;;;5050451;28;20056;-73
2021/07/17 10:21:16;;;;;;;16.98;9.98;;;25.60;99.90;;;;;;5051328;28;20032;-72
2021/07/17 10:23:42;;;;;;;12.10;8.85;;;25.60;99.90;;;;;;5049263;28;20028;-72
2021/07/17 10:26:09;;;;;;;16.08;9.70;;;25.50;99.90;;;;;;5052068;28;20470;-72
2021/07/17 10:28:36;;;;;;;13.60;9.38;;;25.50;99.90;;;;;;5051631;28;20054;-72
2021/07/17 10:31:02;;;;;;;12.50;8.90;;;25.40;99.90;;;;;;5051305;28;20033;-72
2021/07/17 10:33:31;;;;;;;12.50;9.10;;;25.50;99.90;;;;;;5049476;28;20146;-72
2021/07/17 10:36:02;;;;;;;13.00;9.95;;;25.60;99.90;;;;;;5046013;28;20526;-73
2021/07/17 10:38:28;;;;;;;;;;;25.80;99.90;;;;;;5048300;28;20089;-73
2021/07/17 10:40:55;;;;;;;14.38;9.45;;;25.90;99.90;;;;;;5039927;28;19982;-73
2021/07/17 10:43:22;;;;;;;18.25;10.48;;;26.10;99.90;;;;;;5051139;28;20029;-72
2021/07/17 10:45:51;;;;;;;14.88;9.63;;;26.20;99.90;;;;;;5051521;28;20044;-72
2021/07/17 10:48:34;;;;;;;12.13;9.48;;;26.20;99.90;;;;;;5051643;28;20025;-73
2021/07/17 10:51:03;;;;;;;13.80;9.57;;;26.30;99.90;;;;;;5047001;28;20036;-72
2021/07/17 10:53:48;;;;;;;13.30;9.27;;;26.30;99.90;;;;;;5049844;28;20435;-72
2021/07/17 10:56:29;;;;;;;12.75;7.97;;;26.40;99.90;;;;;;5051327;28;20033;-72
2021/07/17 10:58:55;;;;;;;13.30;9.82;;;26.60;99.90;;;;;;5051508;28;20104;-73
2021/07/17 11:01:22;;;;;;;11.93;9.57;;;26.90;99.90;;;;;;5048042;28;20029;-72
2021/07/17 11:03:47;;;;;;;15.18;8.80;;;27.10;99.90;;;;;;5048516;28;20586;-73
2021/07/17 11:06:28;;;;;;;14.80;9.27;;;27.00;99.90;;;;;;5045521;28;20108;-73
2021/07/17 11:08:55;;;;;;;11.95;9.10;;;26.80;99.90;;;;;;5051386;28;20488;-73
2021/07/17 11:11:26;;;;;;;11.40;8.52;;;26.80;99.90;;;;;;5051068;28;20040;-73
2021/07/17 11:13:52;;;;;;;10.98;8.60;;;26.90;99.90;;;;;;5050739;28;20492;-72
2021/07/17 11:16:40;;;;;;;8.95;7.60;;;27.20;99.90;;;;;;5050151;28;20068;-72
2021/07/17 11:19:25;;;;;;;8.43;7.22;;;27.30;99.90;;;;;;5042882;28;20039;-73
2021/07/17 11:21:52;;;;;;;11.70;7.65;;;27.50;98.50;;;;;;5050594;28;20036;-73
2021/07/17 11:24:20;;;;;;;8.50;7.13;;;27.60;98.10;;;;;;5050329;28;20178;-73
2021/07/17 11:26:46;;;;;;;7.70;6.80;;;27.60;96.40;;;;;;5050095;28;20301;-73
2021/07/17 11:29:13;;;;;;;10.63;7.22;;;27.50;95.40;;;;;;5050549;28;20028;-72
2021/07/17 11:31:50;;;;;;;11.27;7.75;;;27.80;97.10;;;;;;5050664;28;20033;-73
2021/07/17 11:34:24;;;;;;;8.18;6.80;;;28.00;96.60;;;;;;5049417;28;20487;-73
2021/07/17 11:36:55;;;;;;;11.43;8.63;;;28.20;95.30;;;;;;5049717;28;20160;-74
2021/07/17 11:39:28;;;;;;;12.40;8.77;;;28.20;93.10;;;;;;5048928;28;20033;-74
2021/07/17 11:41:55;;;;;;;9.27;7.65;;;28.10;95.90;;;;;;5050690;28;20037;-76
2021/07/17 11:44:20;;;;;;;9.30;7.80;;;28.30;92.00;;;;;;5050221;28;20053;-72
2021/07/17 11:47:13;;;;;;;8.10;7.28;;;28.50;93.30;;;;;;5049579;28;20102;-72
2021/07/17 11:49:48;;;;;;;9.52;7.40;;;28.90;92.70;;;;;;5050234;28;20116;-72
2021/07/17 11:52:17;;;;;;;8.98;6.90;;;29.20;90.60;;;;;;5049875;28;20033;-72
2021/07/17 11:54:47;;;;;;;12.55;8.35;;;29.00;89.80;;;;;;5041033;28;20033;-72
2021/07/17 11:57:22;;;;;;;14.20;8.38;;;29.10;86.50;;;;;;5041963;28;20033;-73
2021/07/17 11:59:56;;;;;;;8.25;7.45;;;29.70;85.40;;;;;;5048883;28;20024;-72
2021/07/17 12:02:24;;;;;;;8.82;6.93;;;30.50;85.40;;;;;;5049418;28;20039;-73
2021/07/17 12:04:51;;;;;;;11.18;8.05;;;30.70;80.00;;;;;;5049833;28;20021;-71
2021/07/17 12:07:45;;;;;;;8.85;7.30;;;31.00;76.50;;;;;;5049662;28;20050;-71
2021/07/17 12:10:19;;;;;;;10.15;7.45;;;31.60;76.10;;;;;;5048294;28;20064;-72
2021/07/17 12:12:52;;;;;;;11.52;7.88;;;32.30;71.40;;;;;;5046651;28;20053;-71
2021/07/17 12:15:30;;;;;;;9.20;7.70;;;31.90;69.00;;;;;;5045384;28;20125;-72
2021/07/17 12:17:59;;;;;;;11.40;8.38;;;31.20;70.80;;;;;;5048097;28;20232;-72
2021/07/17 12:20:52;;;;;;;11.90;8.13;;;30.70;74.90;;;;;;5048510;28;20064;-72
2021/07/17 12:23:24;;;;;;;11.95;8.25;;;31.20;74.80;;;;;;5036154;28;20546;-72
2021/07/17 12:25:54;;;;;;;9.07;8.02;;;32.10;69.30;;;;;;5049086;28;20048;-72
2021/07/17 12:28:24;;;;;;;11.32;8.48;;;33.00;67.10;;;;;;5048488;28;20032;-72
2021/07/17 12:30:58;;;;;;;8.45;7.65;;;33.40;66.10;;;;;;5049866;28;20365;-72
2021/07/17 12:33:36;;;;;;;8.38;7.53;;;33.90;67.00;;;;;;5044565;28;20096;-72
2021/07/17 12:36:08;;;;;;;8.63;7.57;;;34.50;59.90;;;;;;5045903;28;20041;-73
2021/07/17 12:38:36;;;;;;;9.35;7.72;;;34.20;60.90;;;;;;5037656;28;20025;-73